Time;durP1;ratioP1;P1;durP2;ratioP2;P2;SDS_P1;SDS_P2;PMS_P1;PMS_P2;Temp;Humidity;BMP_temperature;BMP_pressure;BME280_temperature;BME280_humidity;BME280_pressure;Samples;Min_cycle;Max_cycle;Signal;HPM_P1;HPM_P2
2021/07/13 00:00:36;;;;;;;4.28;4.00;;;22.40;71.40;;;;;;5068497;28;20218;-74
2021/07/13 00:03:05;;;;;;;5.07;4.78;;;22.40;71.30;;;;;;5078842;28;20282;-74
2021/07/13 00:05:31;;;;;;;4.38;4.10;;;22.40;71.10;;;;;;5066891;28;20178;-74
2021/07/13 00:07:57;;;;;;;4.88;4.57;;;22.40;71.50;;;;;;5065664;28;20739;-74
2021/07/13 00:10:27;;;;;;;4.82;4.53;;;22.40;71.90;;;;;;5066765;28;20182;-74
2021/07/13 00:12:55;;;;;;;4.88;4.57;;;22.30;71.70;;;;;;5063716;28;20199;-75
2021/07/13 00:15:27;;;;;;;4.18;4.03;;;22.30;71.60;;;;;;5067782;28;20181;-74
2021/07/13 00:17:54;;;;;;;4.82;4.53;;;22.30;71.90;;;;;;5060058;28;20184;-74
2021/07/13 00:20:21;;;;;;;5.00;4.75;;;22.30;72.30;;;;;;5069408;28;20252;-75
2021/07/13 00:22:47;;;;;;;4.50;4.20;;;22.30;72.60;;;;;;5060313;28;20179;-74
2021/07/13 00:25:15;;;;;;;4.72;4.43;;;22.30;72.50;;;;;;5076045;28;20667;-74
2021/07/13 00:27:41;;;;;;;5.93;4.82;;;22.20;72.30;;;;;;5058003;28;20187;-74
2021/07/13 00:30:08;;;;;;;5.10;4.70;;;22.20;72.70;;;;;;5067819;28;20235;-74
2021/07/13 00:32:34;;;;;;;5.57;4.53;;;22.10;72.90;;;;;;5062561;28;20190;-74
2021/07/13 00:35:00;;;;;;;4.43;4.07;;;22.10;73.20;;;;;;5069429;28;20190;-74
2021/07/13 00:37:25;;;;;;;5.18;4.82;;;22.00;73.30;;;;;;5053070;28;20601;-74
2021/07/13 00:39:51;;;;;;;4.90;4.60;;;22.00;73.00;;;;;;5058213;28;20217;-74
2021/07/13 00:42:18;;;;;;;5.15;4.78;;;22.00;73.10;;;;;;5057940;28;20207;-74
2021/07/13 00:44:45;;;;;;;5.55;4.88;;;21.90;73.20;;;;;;5061415;28;20251;-74
2021/07/13 00:47:12;;;;;;;5.40;4.95;;;21.90;73.30;;;;;;5053723;28;20202;-74
2021/07/13 00:49:38;;;;;;;5.38;4.97;;;21.90;73.00;;;;;;5059617;28;20183;-74
2021/07/13 00:52:05;;;;;;;5.57;5.13;;;21.90;73.10;;;;;;5060514;28;20563;-74
2021/07/13 00:54:35;;;;;;;4.38;4.07;;;21.80;73.10;;;;;;5063672;28;20187;-74
2021/07/13 00:57:09;;;;;;;4.60;4.30;;;21.80;73.20;;;;;;5064523;28;20652;-74
2021/07/13 00:59:36;;;;;;;5.35;4.85;;;21.70;73.00;;;;;;5067606;28;20210;-73
2021/07/13 01:02:04;;;;;;;4.65;4.45;;;21.70;73.20;;;;;;5059447;28;20180;-74
2021/07/13 01:04:30;;;;;;;5.40;4.90;;;21.70;73.40;;;;;;5065885;28;20178;-74
2021/07/13 01:07:18;;;;;;;4.82;4.43;;;21.70;73.80;;;;;;5058522;28;20241;-74
2021/07/13 01:09:46;;;;;;;4.72;4.43;;;21.60;73.50;;;;;;5059229;28;20179;-74
2021/07/13 01:12:33;;;;;;;4.22;4.05;;;21.60;73.60;;;;;;5065551;28;20179;-74
2021/07/13 01:15:02;;;;;;;4.93;4.60;;;21.50;74.40;;;;;;5061274;28;20198;-74
2021/07/13 01:17:37;;;;;;;4.55;4.30;;;21.50;73.50;;;;;;5067221;28;20190;-74
2021/07/13 01:20:38;;;;;;;4.30;4.07;;;21.50;73.60;;;;;;5067286;28;20737;-74
2021/07/13 01:23:38;;;;;;;4.88;4.43;;;21.40;75.10;;;;;;5061389;28;20270;-73
2021/07/13 01:26:27;;;;;;;4.57;4.28;;;21.40;74.80;;;;;;5062743;28;20603;-74
2021/07/13 01:29:00;;;;;;;4.30;4.20;;;21.30;74.40;;;;;;5022661;28;20637;-74
2021/07/13 01:31:28;;;;;;;5.47;4.95;;;21.30;75.00;;;;;;5018987;28;20253;-74
2021/07/13 01:34:16;;;;;;;4.55;4.25;;;21.30;74.50;;;;;;5024916;28;20188;-74
2021/07/13 01:36:47;;;;;;;5.15;4.85;;;21.30;75.30;;;;;;5027837;28;20681;-74
2021/07/13 01:39:15;;;;;;;5.15;4.85;;;21.30;74.40;;;;;;5010256;28;20209;-74
2021/07/13 01:41:41;;;;;;;5.38;4.97;;;21.30;74.80;;;;;;5015564;28;20286;-74
2021/07/13 01:44:10;;;;;;;5.07;4.63;;;21.30;74.90;;;;;;5017026;28;20233;-74
2021/07/13 01:46:38;;;;;;;4.70;4.30;;;21.30;74.60;;;;;;5016018;28;20620;-74
2021/07/13 01:49:05;;;;;;;4.68;4.38;;;21.30;75.00;;;;;;5010899;28;20191;-74
2021/07/13 01:51:32;;;;;;;5.00;4.70;;;21.20;75.00;;;;;;5020026;28;20188;-74
2021/07/13 01:54:05;;;;;;;6.43;5.40;;;21.20;75.10;;;;;;5030327;28;20736;-74
2021/07/13 01:56:31;;;;;;;5.22;4.82;;;21.20;74.70;;;;;;5022125;28;20196;-74
2021/07/13 01:58:58;;;;;;;4.57;4.38;;;21.10;75.20;;;;;;5019026;28;20320;-74
2021/07/13 02:01:25;;;;;;;7.68;5.07;;;21.10;75.10;;;;;;5022468;28;20192;-74
2021/07/13 02:03:54;;;;;;;5.57;5.20;;;21.10;75.30;;;;;;5024990;28;20250;-74
2021/07/13 02:06:23;;;;;;;5.50;5.00;;;21.10;75.20;;;;;;5046217;28;20198;-74
2021/07/13 02:08:52;;;;;;;5.65;5.15;;;21.00;75.30;;;;;;5066362;28;20568;-74
2021/07/13 02:11:18;;;;;;;6.28;5.30;;;21.00;75.10;;;;;;5066271;28;20645;-74
2021/07/13 02:13:44;;;;;;;5.88;5.53;;;21.00;75.50;;;;;;5066281;28;20179;-74
2021/07/13 02:16:10;;;;;;;5.97;5.45;;;20.90;75.50;;;;;;5066437;28;20266;-74
2021/07/13 02:18:36;;;;;;;5.43;4.60;;;20.90;75.60;;;;;;5064638;28;20297;-74
2021/07/13 02:21:03;;;;;;;5.38;4.90;;;20.90;75.80;;;;;;5066152;28;20183;-74
2021/07/13 02:23:29;;;;;;;5.60;5.10;;;20.90;75.60;;;;;;5066228;28;20175;-74
2021/07/13 02:26:01;;;;;;;4.80;4.40;;;20.90;75.60;;;;;;5064691;28;20241;-74
2021/07/13 02:28:35;;;;;;;5.05;4.70;;;20.90;75.10;;;;;;5065920;28;20190;-74
2021/07/13 02:31:08;;;;;;;5.30;4.38;;;20.90;75.10;;;;;;5059440;28;20183;-74
2021/07/13 02:33:40;;;;;;;5.10;4.80;;;20.90;75.10;;;;;;5065812;28;20664;-74
2021/07/13 02:36:18;;;;;;;4.22;4.03;;;20.80;75.10;;;;;;5061258;28;20270;-74
2021/07/13 02:38:46;;;;;;;5.22;4.85;;;20.80;75.40;;;;;;5061258;28;20186;-74
2021/07/13 02:41:14;;;;;;;6.53;5.20;;;20.80;75.50;;;;;;5066242;28;20197;-74
2021/07/13 02:43:40;;;;;;;5.65;5.25;;;20.80;75.40;;;;;;5065509;28;20610;-74
2021/07/13 02:46:07;;;;;;;5.65;5.13;;;20.80;75.60;;;;;;5059356;28;20199;-74
2021/07/13 02:48:37;;;;;;;5.25;4.95;;;20.80;75.60;;;;;;5057059;28;20179;-74
2021/07/13 02:51:03;;;;;;;6.10;5.55;;;20.80;75.10;;;;;;5060505;28;20206;-74
2021/07/13 02:53:29;;;;;;;5.20;4.88;;;20.80;75.60;;;;;;5064990;28;20623;-73
2021/07/13 02:55:56;;;;;;;5.32;5.03;;;20.70;75.50;;;;;;5062723;28;20179;-74
2021/07/13 02:58:22;;;;;;;5.15;4.68;;;20.70;75.80;;;;;;5065662;28;20733;-74
2021/07/13 03:00:49;;;;;;;5.22;4.82;;;20.70;76.00;;;;;;5065449;28;20246;-74
2021/07/13 03:03:16;;;;;;;5.45;5.05;;;20.70;76.30;;;;;;5056829;28;20753;-74
2021/07/13 03:05:43;;;;;;;5.53;5.03;;;20.70;76.20;;;;;;5063932;28;20180;-74
2021/07/13 03:08:09;;;;;;;5.63;5.25;;;20.70;76.40;;;;;;5057744;28;20206;-74
2021/07/13 03:10:36;;;;;;;5.30;4.90;;;20.70;76.30;;;;;;5065117;28;20183;-74
2021/07/13 03:13:02;;;;;;;5.35;4.90;;;20.60;76.30;;;;;;5057596;28;20198;-74
2021/07/13 03:15:30;;;;;;;5.18;4.85;;;20.60;76.40;;;;;;5066371;28;20737;-74
2021/07/13 03:17:57;;;;;;;5.07;4.68;;;20.60;76.30;;;;;;5057119;28;20184;-74
2021/07/13 03:20:24;;;;;;;5.82;5.40;;;20.60;76.30;;;;;;5065408;28;20268;-74
2021/07/13 03:22:51;;;;;;;5.55;5.25;;;20.60;76.40;;;;;;5065716;28;20179;-74
2021/07/13 03:25:23;;;;;;;5.80;4.70;;;20.60;76.30;;;;;;5069959;28;20269;-75
2021/07/13 03:27:51;;;;;;;4.90;4.60;;;20.60;76.20;;;;;;5056437;28;20180;-74
2021/07/13 03:30:18;;;;;;;5.13;4.63;;;20.70;76.40;;;;;;5060574;28;20586;-74
2021/07/13 03:32:45;;;;;;;5.20;4.80;;;20.60;76.50;;;;;;5065481;28;20611;-74
2021/07/13 03:35:11;;;;;;;5.68;5.18;;;20.70;76.40;;;;;;5066300;28;20182;-75
2021/07/13 03:37:38;;;;;;;5.85;5.45;;;20.70;76.20;;;;;;5051999;28;20184;-74
2021/07/13 03:40:06;;;;;;;5.28;4.85;;;20.70;76.00;;;;;;5058436;28;20211;-75
2021/07/13 03:42:32;;;;;;;5.60;5.18;;;20.70;75.90;;;;;;5058629;28;20202;-74
2021/07/13 03:44:58;;;;;;;4.40;4.18;;;20.70;76.10;;;;;;5058343;28;20555;-74
2021/07/13 03:47:24;;;;;;;5.07;4.85;;;20.70;76.10;;;;;;5051927;28;20262;-74
2021/07/13 03:49:50;;;;;;;6.55;5.10;;;20.70;76.20;;;;;;5060367;28;20215;-74
2021/07/13 03:52:17;;;;;;;5.35;4.70;;;20.80;76.00;;;;;;5063172;28;20171;-74
2021/07/13 03:54:42;;;;;;;5.95;5.45;;;20.80;76.20;;;;;;5065172;28;20191;-74
2021/07/13 03:57:08;;;;;;;5.30;4.90;;;20.80;76.30;;;;;;5063623;28;20260;-75
2021/07/13 03:59:34;;;;;;;5.88;5.22;;;20.80;76.40;;;;;;5068854;28;20249;-75
2021/07/13 04:02:00;;;;;;;5.95;5.55;;;20.90;76.50;;;;;;5061464;28;20298;-74
2021/07/13 04:04:26;;;;;;;5.70;5.30;;;20.90;76.50;;;;;;5069705;28;20186;-74
2021/07/13 04:06:51;;;;;;;5.07;4.78;;;20.90;76.80;;;;;;5061083;28;20191;-74
2021/07/13 04:09:17;;;;;;;5.45;5.10;;;21.00;76.80;;;;;;5069802;28;20188;-74
2021/07/13 04:11:44;;;;;;;6.47;5.53;;;21.00;77.10;;;;;;5062233;28;20286;-74
2021/07/13 04:14:10;;;;;;;5.50;5.20;;;21.00;77.20;;;;;;5069029;28;20265;-74
2021/07/13 04:16:36;;;;;;;5.57;5.22;;;21.00;77.10;;;;;;5061137;28;20179;-75
2021/07/13 04:19:02;;;;;;;5.47;5.07;;;21.10;77.20;;;;;;5066645;28;20233;-75
2021/07/13 04:21:27;;;;;;;6.50;5.88;;;21.10;77.40;;;;;;5068718;28;20191;-75
2021/07/13 04:23:53;;;;;;;6.43;5.43;;;21.10;77.50;;;;;;5068217;28;20187;-75
2021/07/13 04:26:20;;;;;;;9.38;6.10;;;21.10;77.60;;;;;;5065727;28;20211;-74
2021/07/13 04:28:46;;;;;;;5.38;5.00;;;21.10;77.40;;;;;;5065443;28;20720;-75
2021/07/13 04:31:12;;;;;;;5.93;5.35;;;21.20;77.50;;;;;;5060415;28;20180;-74
2021/07/13 04:33:37;;;;;;;6.13;5.63;;;21.20;77.80;;;;;;5068503;28;20262;-74
2021/07/13 04:36:03;;;;;;;6.15;4.93;;;21.20;77.80;;;;;;5061180;28;20239;-75
2021/07/13 04:38:29;;;;;;;5.82;5.43;;;21.20;77.90;;;;;;5059661;28;20677;-74
2021/07/13 04:40:55;;;;;;;5.10;4.70;;;21.20;77.90;;;;;;5054020;28;20301;-74
2021/07/13 04:43:21;;;;;;;6.22;5.72;;;21.30;77.80;;;;;;5067297;28;20175;-74
2021/07/13 04:45:47;;;;;;;5.22;4.93;;;21.30;77.90;;;;;;5054079;28;20613;-74
2021/07/13 04:48:13;;;;;;;7.45;5.85;;;21.30;77.80;;;;;;5059216;28;20179;-74
2021/07/13 04:50:38;;;;;;;5.55;5.15;;;21.40;78.10;;;;;;5053926;28;20183;-74
2021/07/13 04:53:04;;;;;;;5.95;5.35;;;21.40;78.00;;;;;;5068688;28;20214;-74
2021/07/13 04:55:30;;;;;;;6.75;6.07;;;21.50;77.50;;;;;;5063289;28;20186;-74
2021/07/13 04:57:56;;;;;;;5.57;5.30;;;21.50;77.00;;;;;;5067347;28;20185;-73
2021/07/13 05:00:21;;;;;;;5.53;5.07;;;21.50;77.00;;;;;;5066675;28;20210;-74
2021/07/13 05:02:47;;;;;;;5.05;4.78;;;21.60;77.00;;;;;;5062273;28;20186;-74
2021/07/13 05:05:14;;;;;;;6.40;5.35;;;21.60;77.10;;;;;;5057729;28;20699;-74
2021/07/13 05:07:44;;;;;;;6.50;5.97;;;21.60;76.90;;;;;;5066259;28;20257;-74
2021/07/13 05:10:11;;;;;;;5.97;5.47;;;21.70;76.60;;;;;;5059254;28;20179;-75
2021/07/13 05:12:38;;;;;;;6.45;6.03;;;21.70;76.80;;;;;;5064968;28;20730;-75
2021/07/13 05:15:06;;;;;;;8.32;5.88;;;21.80;77.20;;;;;;5060284;28;20175;-76
2021/07/13 05:17:32;;;;;;;6.22;5.63;;;21.80;76.90;;;;;;5062939;28;20184;-75
2021/07/13 05:19:57;;;;;;;7.40;6.55;;;21.90;77.10;;;;;;5064146;28;20214;-75
2021/07/13 05:22:23;;;;;;;6.70;6.15;;;21.90;77.10;;;;;;5066885;28;20190;-75
2021/07/13 05:24:49;;;;;;;8.90;6.05;;;22.00;76.90;;;;;;5067323;28;20194;-75
2021/07/13 05:27:17;;;;;;;7.47;6.53;;;22.00;76.90;;;;;;5062885;28;20195;-75
2021/07/13 05:29:44;;;;;;;6.40;5.95;;;22.10;76.90;;;;;;5077197;28;20198;-75
2021/07/13 05:32:09;;;;;;;5.57;5.13;;;22.10;76.90;;;;;;5063216;28;20259;-75
2021/07/13 05:34:35;;;;;;;8.40;5.85;;;22.20;76.90;;;;;;5067416;28;20214;-75
2021/07/13 05:37:01;;;;;;;9.35;6.25;;;22.20;77.00;;;;;;5056975;28;20262;-75
2021/07/13 05:39:27;;;;;;;8.88;6.40;;;22.30;77.10;;;;;;5053112;28;20834;-75
2021/07/13 05:41:55;;;;;;;9.07;5.60;;;22.30;77.00;;;;;;5058795;28;20196;-75
2021/07/13 05:44:20;;;;;;;10.45;6.45;;;22.40;76.90;;;;;;5061022;28;20184;-75
2021/07/13 05:46:46;;;;;;;7.82;6.47;;;22.40;77.00;;;;;;5056829;28;20180;-75
2021/07/13 05:49:12;;;;;;;6.88;6.05;;;22.50;76.90;;;;;;5056116;28;20191;-75
2021/07/13 05:51:37;;;;;;;6.80;6.25;;;22.50;76.70;;;;;;5059306;28;20621;-75
2021/07/13 05:54:03;;;;;;;7.35;6.75;;;22.60;76.60;;;;;;5062300;28;20194;-75
2021/07/13 05:56:29;;;;;;;6.97;6.47;;;22.60;76.40;;;;;;5066107;28;20266;-75
2021/07/13 05:58:54;;;;;;;9.48;7.78;;;22.70;76.40;;;;;;5066178;28;20187;-75
2021/07/13 06:01:20;;;;;;;7.78;7.00;;;22.70;76.10;;;;;;5063539;28;20233;-75
2021/07/13 06:03:46;;;;;;;7.28;6.70;;;22.70;76.70;;;;;;5059993;28;20262;-75
2021/07/13 06:06:11;;;;;;;11.82;6.65;;;22.80;76.70;;;;;;5064606;28;20187;-75
2021/07/13 06:08:37;;;;;;;6.65;6.20;;;22.80;76.30;;;;;;5059875;28;20258;-75
2021/07/13 06:11:03;;;;;;;13.68;6.95;;;22.90;76.10;;;;;;5063639;28;20582;-75
2021/07/13 06:13:28;;;;;;;6.88;6.28;;;23.00;75.90;;;;;;5058141;28;20625;-75
2021/07/13 06:15:54;;;;;;;7.03;6.13;;;23.00;76.10;;;;;;5062627;28;20666;-75
2021/07/13 06:18:20;;;;;;;6.20;5.90;;;23.00;76.00;;;;;;5058561;28;20322;-75
2021/07/13 06:20:47;;;;;;;7.90;6.57;;;23.10;75.90;;;;;;5065764;28;20607;-75
2021/07/13 06:23:12;;;;;;;7.22;6.60;;;23.20;75.80;;;;;;5065914;28;20236;-75
2021/07/13 06:25:38;;;;;;;6.88;6.15;;;23.30;75.90;;;;;;5067022;28;20180;-74
2021/07/13 06:28:05;;;;;;;7.78;6.68;;;23.30;75.90;;;;;;5056159;28;20187;-74
2021/07/13 06:30:30;;;;;;;10.48;6.63;;;23.40;75.50;;;;;;5059874;28;20223;-74
2021/07/13 06:32:56;;;;;;;7.25;6.65;;;23.50;75.50;;;;;;5060192;28;20210;-74
2021/07/13 06:35:22;;;;;;;7.18;6.47;;;23.50;75.40;;;;;;5065247;28;20179;-74
2021/07/13 06:37:47;;;;;;;7.18;6.47;;;23.60;75.20;;;;;;5052951;28;20207;-75
2021/07/13 06:40:16;;;;;;;7.90;6.32;;;23.70;75.00;;;;;;5058285;28;20211;-74
2021/07/13 06:42:42;;;;;;;9.43;6.47;;;23.80;74.60;;;;;;5060763;28;20195;-75
2021/07/13 06:45:08;;;;;;;7.63;7.00;;;23.80;74.60;;;;;;5057540;28;20190;-74
2021/07/13 06:47:33;;;;;;;9.07;6.60;;;23.90;74.50;;;;;;5053666;28;20207;-75
2021/07/13 06:49:59;;;;;;;11.57;7.10;;;24.00;74.60;;;;;;5057389;28;20179;-75
2021/07/13 06:52:25;;;;;;;7.10;6.50;;;24.00;74.50;;;;;;5061527;28;20182;-74
2021/07/13 06:54:50;;;;;;;7.38;6.47;;;24.10;74.40;;;;;;5061204;28;20572;-75
2021/07/13 06:57:16;;;;;;;8.05;6.90;;;24.20;74.50;;;;;;5064655;28;20672;-75
2021/07/13 06:59:42;;;;;;;11.43;7.18;;;24.20;74.40;;;;;;5065162;28;20217;-75
2021/07/13 07:02:09;;;;;;;7.35;6.70;;;24.30;74.00;;;;;;5056495;28;20175;-74
2021/07/13 07:04:35;;;;;;;8.85;7.50;;;24.40;74.40;;;;;;5059564;28;20180;-74
2021/07/13 07:07:01;;;;;;;7.82;6.55;;;24.40;74.10;;;;;;5054433;28;20187;-75
2021/07/13 07:09:27;;;;;;;7.55;6.78;;;24.50;73.50;;;;;;5059041;28;20188;-74
2021/07/13 07:11:53;;;;;;;7.40;6.65;;;24.50;73.50;;;;;;5054410;28;20184;-74
2021/07/13 07:14:19;;;;;;;8.13;7.28;;;24.60;73.40;;;;;;5058766;28;20237;-74
2021/07/13 07:16:44;;;;;;;9.35;6.75;;;24.60;72.70;;;;;;5064441;28;20191;-74
2021/07/13 07:19:10;;;;;;;7.00;6.50;;;24.70;73.00;;;;;;5065310;28;20246;-74
2021/07/13 07:21:36;;;;;;;6.60;6.13;;;24.80;73.20;;;;;;5064679;28;20260;-74
2021/07/13 07:24:02;;;;;;;8.98;6.53;;;24.80;73.10;;;;;;5068041;28;20636;-74
2021/07/13 07:26:28;;;;;;;6.97;6.30;;;24.90;72.90;;;;;;5070572;28;20187;-74
2021/07/13 07:28:53;;;;;;;7.40;6.70;;;25.00;72.40;;;;;;5070622;28;20833;-74
2021/07/13 07:31:21;;;;;;;6.18;5.57;;;25.00;72.10;;;;;;5070222;28;20207;-74
2021/07/13 07:33:47;;;;;;;6.50;6.00;;;25.10;72.10;;;;;;5068853;28;20201;-74
2021/07/13 07:36:12;;;;;;;7.55;7.03;;;25.20;71.30;;;;;;5070371;28;20183;-75
2021/07/13 07:38:40;;;;;;;7.15;6.38;;;25.20;71.20;;;;;;5070534;28;20217;-75
2021/07/13 07:41:06;;;;;;;6.47;6.10;;;25.30;70.20;;;;;;5070650;28;20215;-75
2021/07/13 07:43:32;;;;;;;8.10;6.35;;;25.30;70.20;;;;;;5069868;28;20186;-75
2021/07/13 07:45:58;;;;;;;7.22;6.70;;;25.40;70.90;;;;;;5069805;28;20187;-75
2021/07/13 07:48:24;;;;;;;7.72;6.00;;;25.50;70.70;;;;;;5068438;28;20695;-75
2021/07/13 07:50:50;;;;;;;6.80;6.10;;;25.50;70.60;;;;;;5067650;28;20203;-75
2021/07/13 07:53:15;;;;;;;5.97;5.50;;;25.60;70.10;;;;;;5070016;28;20194;-76
2021/07/13 07:55:43;;;;;;;8.18;6.57;;;25.70;69.70;;;;;;5069911;28;20684;-76
2021/07/13 07:58:09;;;;;;;10.00;6.22;;;25.70;69.90;;;;;;5068648;28;20236;-75
2021/07/13 08:00:35;;;;;;;7.82;6.75;;;25.80;70.00;;;;;;5070079;28;20214;-76
2021/07/13 08:03:01;;;;;;;6.53;6.00;;;25.90;69.90;;;;;;5070396;28;20183;-75
2021/07/13 08:05:27;;;;;;;7.30;6.43;;;26.00;69.90;;;;;;5070107;28;20218;-76
2021/07/13 08:07:53;;;;;;;6.03;5.72;;;26.10;69.50;;;;;;5069640;28;20210;-75
2021/07/13 08:10:19;;;;;;;6.35;5.97;;;26.20;69.50;;;;;;5069494;28;20618;-75
2021/07/13 08:12:45;;;;;;;6.47;6.05;;;26.30;69.30;;;;;;5069229;28;20186;-76
2021/07/13 08:15:12;;;;;;;7.00;6.45;;;26.30;69.10;;;;;;5069425;28;20268;-75
2021/07/13 08:17:38;;;;;;;6.72;5.97;;;26.40;68.90;;;;;;5065337;28;20225;-74
2021/07/13 08:20:06;;;;;;;15.07;6.75;;;26.50;68.70;;;;;;5064821;28;20214;-75
2021/07/13 08:22:33;;;;;;;10.00;6.05;;;26.60;68.90;;;;;;5069345;28;20187;-75
2021/07/13 08:24:59;;;;;;;6.80;6.18;;;26.70;68.60;;;;;;5067719;28;20305;-74
2021/07/13 08:27:25;;;;;;;15.40;6.55;;;26.80;68.20;;;;;;5069441;28;20171;-75
2021/07/13 08:29:51;;;;;;;14.88;6.68;;;26.90;68.30;;;;;;5069745;28;20182;-75
2021/07/13 08:32:17;;;;;;;9.68;6.95;;;27.00;68.30;;;;;;5068798;28;20561;-75
2021/07/13 08:34:42;;;;;;;7.13;6.53;;;27.10;68.10;;;;;;5069532;28;20183;-75
2021/07/13 08:37:08;;;;;;;7.38;6.78;;;27.10;67.70;;;;;;5056355;28;20244;-75
2021/07/13 08:39:34;;;;;;;7.63;6.95;;;27.20;67.50;;;;;;5056976;28;20215;-75
2021/07/13 08:42:02;;;;;;;6.53;6.13;;;27.30;67.70;;;;;;5058457;28;20203;-75
2021/07/13 08:44:31;;;;;;;6.78;6.25;;;27.40;67.50;;;;;;5062354;28;20214;-75
2021/07/13 08:46:58;;;;;;;6.90;6.28;;;27.40;67.30;;;;;;5053653;28;20184;-74
2021/07/13 08:49:24;;;;;;;9.73;6.40;;;27.50;68.10;;;;;;5058102;28;20191;-74
2021/07/13 08:51:50;;;;;;;6.72;6.18;;;27.60;67.90;;;;;;5057854;28;20182;-74
2021/07/13 08:54:16;;;;;;;7.10;6.60;;;27.70;67.00;;;;;;5062663;28;20187;-74
2021/07/13 08:56:41;;;;;;;8.55;6.85;;;27.80;66.50;;;;;;5067441;28;20187;-74
2021/07/13 08:59:07;;;;;;;7.03;6.53;;;27.90;66.50;;;;;;5067805;28;20214;-74
2021/07/13 09:01:33;;;;;;;15.63;6.63;;;28.00;64.90;;;;;;5062516;28;20213;-74
2021/07/13 09:04:07;;;;;;;6.63;5.90;;;28.10;65.50;;;;;;5060739;28;20183;-74
2021/07/13 09:06:56;;;;;;;7.30;6.70;;;28.20;65.80;;;;;;5055796;28;20278;-75
2021/07/13 09:09:31;;;;;;;6.53;6.03;;;28.30;65.60;;;;;;5063849;28;20190;-75
2021/07/13 09:12:16;;;;;;;6.45;6.07;;;28.40;64.90;;;;;;5067691;28;20194;-75
2021/07/13 09:15:00;;;;;;;7.32;6.70;;;28.60;65.00;;;;;;5053950;28;20615;-75
2021/07/13 09:17:28;;;;;;;7.65;7.05;;;28.70;64.80;;;;;;5063903;28;20182;-75
2021/07/13 09:20:00;;;;;;;6.57;6.05;;;28.80;64.10;;;;;;5067370;28;20683;-75
2021/07/13 09:22:27;;;;;;;7.03;6.43;;;28.90;63.60;;;;;;5067271;28;20301;-75
2021/07/13 09:24:54;;;;;;;6.70;6.22;;;29.00;63.90;;;;;;5068507;28;20189;-75
2021/07/13 09:27:20;;;;;;;7.13;6.63;;;29.20;63.70;;;;;;5057774;28;20194;-75
2021/07/13 09:29:48;;;;;;;7.30;6.72;;;29.30;63.20;;;;;;5056848;28;20207;-75
2021/07/13 09:32:21;;;;;;;7.35;6.85;;;29.40;63.40;;;;;;5053321;28;20179;-75
2021/07/13 09:34:51;;;;;;;7.05;6.35;;;29.60;62.00;;;;;;5064693;28;20195;-75
2021/07/13 09:37:26;;;;;;;6.70;6.30;;;29.60;62.00;;;;;;5055007;28;20182;-75
2021/07/13 09:39:55;;;;;;;8.18;7.07;;;29.80;61.70;;;;;;5066893;28;20313;-75
2021/07/13 09:42:23;;;;;;;7.47;6.82;;;29.80;61.80;;;;;;5067084;28;20226;-75
2021/07/13 09:44:48;;;;;;;7.45;7.05;;;30.00;61.70;;;;;;5056624;28;20179;-75
2021/07/13 09:47:30;;;;;;;9.63;7.43;;;30.00;60.20;;;;;;5050008;28;20194;-76
2021/07/13 09:49:58;;;;;;;8.73;7.60;;;30.00;60.10;;;;;;5080356;28;20658;-75
2021/07/13 09:52:25;;;;;;;7.20;6.68;;;30.00;60.30;;;;;;5066533;28;20187;-75
2021/07/13 09:54:51;;;;;;;7.13;6.72;;;30.10;61.60;;;;;;5062453;28;20195;-75
2021/07/13 09:57:28;;;;;;;7.30;6.70;;;30.20;61.20;;;;;;5066138;28;20179;-75
2021/07/13 09:59:58;;;;;;;7.10;6.45;;;30.30;61.60;;;;;;5066476;28;21117;-75
2021/07/13 10:02:26;;;;;;;7.82;7.32;;;30.50;60.10;;;;;;5061289;28;20239;-75
2021/07/13 10:04:52;;;;;;;7.47;6.97;;;30.60;58.60;;;;;;5058134;28;20192;-75
2021/07/13 10:07:20;;;;;;;8.00;7.28;;;30.70;59.30;;;;;;5064066;28;20182;-75
2021/07/13 10:09:48;;;;;;;7.85;7.15;;;30.80;59.80;;;;;;5056941;28;20447;-75
2021/07/13 10:12:16;;;;;;;7.32;6.93;;;31.00;60.30;;;;;;5065386;28;20279;-75
2021/07/13 10:14:44;;;;;;;6.80;6.35;;;31.30;59.20;;;;;;5057897;28;20194;-75
2021/07/13 10:17:10;;;;;;;7.07;6.47;;;31.60;57.30;;;;;;5066462;28;20187;-75
2021/07/13 10:19:43;;;;;;;6.78;6.38;;;31.90;57.00;;;;;;5066080;28;20307;-75
2021/07/13 10:22:09;;;;;;;6.40;6.03;;;32.20;56.10;;;;;;5066292;28;20312;-75
2021/07/13 10:24:35;;;;;;;6.68;6.30;;;32.50;55.90;;;;;;5066212;28;20178;-75
2021/07/13 10:27:03;;;;;;;6.75;6.22;;;33.00;56.80;;;;;;5064979;28;20193;-75
2021/07/13 10:29:31;;;;;;;6.80;6.47;;;33.30;56.80;;;;;;5071786;28;20193;-75
2021/07/13 10:32:03;;;;;;;6.68;5.93;;;33.80;55.60;;;;;;5063306;28;20583;-75
2021/07/13 10:34:53;;;;;;;6.15;5.80;;;34.20;55.00;;;;;;5065774;28;20681;-74
2021/07/13 10:37:36;;;;;;;5.82;5.53;;;34.80;53.70;;;;;;5053928;28;20178;-74
2021/07/13 10:40:06;;;;;;;5.80;5.50;;;35.50;51.30;;;;;;5066096;28;20213;-74
2021/07/13 10:42:41;;;;;;;5.68;5.35;;;36.20;50.50;;;;;;5065967;28;20679;-74
2021/07/13 10:45:29;;;;;;;5.78;5.55;;;37.20;48.90;;;;;;5063912;28;20265;-74
2021/07/13 10:48:14;;;;;;;5.80;5.55;;;37.70;46.50;;;;;;5065822;28;20200;-74
2021/07/13 10:51:06;;;;;;;6.20;5.80;;;38.00;46.60;;;;;;5064244;28;20969;-74
2021/07/13 10:53:39;;;;;;;5.53;5.32;;;38.50;46.50;;;;;;5063250;28;20189;-75
2021/07/13 10:56:10;;;;;;;6.75;5.45;;;39.20;46.70;;;;;;5063480;28;20232;-74
2021/07/13 10:58:39;;;;;;;5.82;5.53;;;39.70;45.00;;;;;;5057095;28;20182;-74
2021/07/13 11:01:14;;;;;;;6.15;5.85;;;40.00;44.80;;;;;;5065302;28;20224;-75
2021/07/13 11:03:39;;;;;;;5.85;5.53;;;40.10;44.70;;;;;;5055712;28;20190;-75
2021/07/13 11:06:15;;;;;;;5.90;5.60;;;40.00;45.10;;;;;;5065328;28;20568;-75
2021/07/13 11:08:41;;;;;;;5.70;5.40;;;40.00;45.10;;;;;;5059909;28;20179;-75
2021/07/13 11:11:17;;;;;;;7.28;5.15;;;40.10;45.30;;;;;;5062781;28;20193;-74
2021/07/13 11:13:45;;;;;;;6.25;6.03;;;40.20;44.70;;;;;;5079129;28;20190;-75
2021/07/13 11:16:12;;;;;;;5.75;5.32;;;40.30;44.30;;;;;;5059456;28;20194;-75
2021/07/13 11:18:39;;;;;;;5.53;5.30;;;40.40;44.00;;;;;;5065277;28;20256;-75
2021/07/13 11:21:17;;;;;;;6.25;5.95;;;40.60;44.60;;;;;;5065303;28;20687;-75
2021/07/13 11:23:44;;;;;;;5.68;5.47;;;41.20;43.70;;;;;;5065548;28;20194;-75
2021/07/13 11:26:11;;;;;;;6.88;5.65;;;41.70;43.50;;;;;;5063923;28;20207;-74
2021/07/13 11:28:38;;;;;;;5.85;5.15;;;42.40;43.20;;;;;;5067644;28;20181;-75
2021/07/13 11:31:05;;;;;;;5.20;5.10;;;43.00;42.80;;;;;;5056671;28;20540;-75
2021/07/13 11:33:31;;;;;;;5.22;5.03;;;43.50;41.90;;;;;;5063913;28;20190;-75
2021/07/13 11:36:03;;;;;;;4.63;4.43;;;43.90;42.60;;;;;;5057521;28;20178;-75
2021/07/13 11:38:35;;;;;;;5.22;5.03;;;44.10;40.10;;;;;;5065594;28;20193;-75
2021/07/13 11:41:15;;;;;;;4.65;4.55;;;44.30;41.10;;;;;;5065368;28;20663;-75
2021/07/13 11:43:42;;;;;;;4.90;4.72;;;44.50;38.50;;;;;;5063761;28;20236;-76
2021/07/13 11:46:17;;;;;;;4.70;4.60;;;44.80;39.30;;;;;;5058474;28;20595;-76
2021/07/13 11:48:57;;;;;;;5.07;4.88;;;44.90;40.70;;;;;;5053931;28;20179;-76
2021/07/13 11:51:50;;;;;;;5.05;4.90;;;45.00;40.70;;;;;;5061767;28;20189;-76
2021/07/13 11:54:19;;;;;;;5.85;5.05;;;45.10;40.40;;;;;;5061181;28;20190;-75
2021/07/13 11:56:47;;;;;;;5.53;5.25;;;45.30;40.40;;;;;;5064923;28;20188;-76
2021/07/13 11:59:22;;;;;;;5.90;5.40;;;45.50;40.20;;;;;;5065056;28;20217;-76
2021/07/13 12:01:53;;;;;;;5.65;5.45;;;45.80;39.10;;;;;;5058617;28;20581;-76
2021/07/13 12:04:23;;;;;;;5.30;4.93;;;46.20;39.40;;;;;;5065673;28;20197;-76
2021/07/13 12:06:52;;;;;;;5.38;5.13;;;46.60;38.50;;;;;;5054238;28;20671;-76
2021/07/13 12:09:27;;;;;;;5.22;5.03;;;46.80;39.60;;;;;;5065860;28;20688;-74
2021/07/13 12:11:55;;;;;;;5.20;4.70;;;47.10;38.90;;;;;;5062987;28;20178;-74
2021/07/13 12:14:23;;;;;;;5.55;5.35;;;47.40;38.40;;;;;;5064702;28;20187;-75
2021/07/13 12:16:49;;;;;;;5.90;5.70;;;47.50;38.40;;;;;;5063342;28;20194;-75
2021/07/13 12:19:15;;;;;;;5.75;5.38;;;47.70;38.80;;;;;;5064636;28;20214;-75
2021/07/13 12:21:51;;;;;;;5.35;5.15;;;47.80;39.70;;;;;;5068571;28;20694;-75
2021/07/13 12:24:20;;;;;;;5.40;5.15;;;47.90;37.80;;;;;;5067960;28;20334;-75
2021/07/13 12:26:51;;;;;;;5.57;5.28;;;48.00;39.50;;;;;;5069137;28;20185;-75
2021/07/13 12:29:41;;;;;;;5.20;5.00;;;47.80;37.90;;;;;;5060166;28;20186;-75
2021/07/13 12:32:32;;;;;;;4.78;4.57;;;47.70;35.90;;;;;;5026962;28;20192;-75
2021/07/13 12:35:06;;;;;;;4.63;4.47;;;47.50;36.00;;;;;;5028181;28;20194;-75
2021/07/13 12:37:32;;;;;;;4.82;4.63;;;47.50;38.10;;;;;;5011962;28;20200;-75
2021/07/13 12:40:01;;;;;;;4.53;4.43;;;47.50;37.10;;;;;;5018037;28;20465;-75
2021/07/13 12:42:29;;;;;;;4.75;4.65;;;47.00;36.40;;;;;;5017985;28;20700;-75
2021/07/13 12:45:22;;;;;;;5.82;4.57;;;46.70;38.80;;;;;;5018600;28;20180;-75
2021/07/13 12:47:49;;;;;;;4.93;4.75;;;46.30;37.90;;;;;;5018695;28;20215;-75
2021/07/13 12:50:29;;;;;;;5.05;4.85;;;46.10;38.30;;;;;;5012090;28;20200;-75
2021/07/13 12:52:58;;;;;;;4.75;4.63;;;45.70;37.10;;;;;;5024861;28;20618;-75